»·PEaware :: ASA530 KLAX-KSJC

ASA530 :: KLAX-KSJC

FLIGHT INFORMATION

Flight Status: Arrived
Operator:
Alaska Airlines
More flights by this operator :: More flights under this callsign
Pilot: Pratham R. (19019)
Aircraft: AIRBUS A319
(A319)
More flights by this aircraft type
Origin: KLAX Los Angeles Intl
United States
Destination: KSJC Mineta San Jose Intl
United States
More flights between these airports :: More routes between these airports
Route: SUMMR2 SCTRR TROXX SILCN4
File this flight plan on PilotEdge
Remarks: RMK / SIMBRIEF
Altitude:
(Current/Filed)
36,000ft
Speed:
(Current/Filed)
449kts
Departed: 24-Aug-20 09:54 PM
Arrived: 24-Aug-20 10:42 PM
Distance/Time
Traveled:
267nm/0:48
Distance/Time
To Go:
Arrived

Flight Plot

Page will automatically refresh every two minutes.

Flight plan parsing failed; only flown route is shown


Map Options




Map Legend


Flown Route
Filed Route
Departure Airport
Arrival Airport
Navaid (VOR, NDB)
Fix

Horizontal Profiles

Position Reports

Time Latitude Longitude Heading Altitude Ground
Speed
24-Aug-20 21:33 33.947882 -118.400743 222 116ft 0kts
24-Aug-20 21:34 33.947882 -118.400743 222 116ft 0kts
24-Aug-20 21:35 33.947882 -118.400743 222 116ft 0kts
24-Aug-20 21:36 33.947882 -118.400744 222 116ft 0kts
24-Aug-20 21:37 33.947882 -118.400744 222 116ft 0kts
24-Aug-20 21:38 33.947882 -118.400744 222 116ft 0kts
24-Aug-20 21:39 33.947882 -118.400744 222 116ft 0kts
24-Aug-20 21:40 33.947882 -118.400744 222 116ft 0kts
24-Aug-20 21:41 33.947882 -118.400744 222 116ft 0kts
24-Aug-20 21:42 33.947882 -118.400744 222 116ft 0kts
24-Aug-20 21:43 33.947882 -118.400744 222 116ft 0kts
24-Aug-20 21:44 33.947882 -118.400744 222 116ft 0kts
24-Aug-20 21:45 33.948035 -118.400575 222 116ft 2kts
24-Aug-20 21:46 33.947959 -118.400043 359 115ft 1kts
24-Aug-20 21:47 33.947865 -118.400059 7 115ft 0kts
24-Aug-20 21:48 33.947865 -118.400059 7 115ft 0kts
24-Aug-20 21:49 33.947866 -118.400058 7 115ft 0kts
24-Aug-20 21:50 33.948778 -118.400810 307 115ft 9kts
24-Aug-20 21:51 33.950065 -118.401788 334 117ft 6kts
24-Aug-20 21:52 33.950103 -118.402572 260 117ft 8kts
24-Aug-20 21:53 33.945872 -118.443358 259 1382ft 169kts
24-Aug-20 21:54 33.942005 -118.505659 264 3798ft 225kts
24-Aug-20 21:55 33.935186 -118.591513 262 6736ft 279kts
24-Aug-20 21:56 33.928064 -118.684651 261 10250ft 293kts
24-Aug-20 21:57 33.920189 -118.788545 261 12683ft 319kts
24-Aug-20 21:58 33.918662 -118.897680 268 15584ft 334kts
24-Aug-20 21:59 33.924762 -119.011069 280 18298ft 351kts
24-Aug-20 22:00 33.973424 -119.115787 298 20866ft 365kts
24-Aug-20 22:01 34.039251 -119.212100 320 23024ft 386kts
24-Aug-20 22:02 34.128772 -119.288094 321 24943ft 397kts
24-Aug-20 22:03 34.220278 -119.366517 321 26637ft 406kts
24-Aug-20 22:04 34.313600 -119.447216 321 28159ft 415kts
24-Aug-20 22:05 34.408357 -119.529472 320 29529ft 423kts
24-Aug-20 22:06 34.502852 -119.617813 318 30743ft 431kts
24-Aug-20 22:07 34.597855 -119.707824 318 31876ft 438kts
24-Aug-20 22:08 34.694763 -119.799772 318 32900ft 445kts
24-Aug-20 22:09 34.792235 -119.892372 318 33830ft 450kts
24-Aug-20 22:10 34.891709 -119.987164 318 34686ft 456kts
24-Aug-20 22:11 34.991366 -120.082330 317 35725ft 454kts
24-Aug-20 22:12 35.090337 -120.177335 316 35932ft 453kts
24-Aug-20 22:13 35.189751 -120.272236 317 35930ft 454kts
24-Aug-20 22:14 35.291199 -120.364590 319 35927ft 457kts
24-Aug-20 22:15 35.392939 -120.457793 318 35897ft 458kts
24-Aug-20 22:16 35.493934 -120.550879 318 34103ft 452kts
24-Aug-20 22:17 35.595413 -120.639288 321 32263ft 441kts
24-Aug-20 22:18 35.694842 -120.723869 321 30562ft 428kts
24-Aug-20 22:19 35.793587 -120.805232 326 28788ft 432kts
24-Aug-20 22:20 35.896414 -120.878863 326 27349ft 418kts
24-Aug-20 22:21 35.995847 -120.952038 324 26232ft 412kts
24-Aug-20 22:22 36.086710 -121.035106 318 24479ft 403kts
24-Aug-20 22:23 36.175054 -121.119103 318 22696ft 397kts
24-Aug-20 22:24 36.261712 -121.201863 318 20979ft 389kts
24-Aug-20 22:25 36.346192 -121.282861 318 19372ft 378kts
24-Aug-20 22:26 36.430857 -121.364435 319 16937ft 389kts
24-Aug-20 22:27 36.518751 -121.439010 338 14990ft 374kts
24-Aug-20 22:28 36.615692 -121.479365 341 13091ft 357kts
24-Aug-20 22:29 36.708424 -121.518457 340 11616ft 341kts
24-Aug-20 22:30 36.796067 -121.555508 339 10087ft 314kts
24-Aug-20 22:31 36.876924 -121.590022 338 8771ft 299kts
24-Aug-20 22:32 36.954976 -121.623262 339 7405ft 292kts
24-Aug-20 22:33 37.031960 -121.655987 338 5880ft 289kts
24-Aug-20 22:34 37.107402 -121.688281 339 4516ft 279kts
24-Aug-20 22:36 37.174651 -121.723112 317 3916ft 236kts
24-Aug-20 22:37 37.220534 -121.773589 315 3547ft 206kts
24-Aug-20 22:38 37.260597 -121.817731 315 2552ft 169kts
24-Aug-20 22:39 37.291962 -121.852853 316 1680ft 143kts
24-Aug-20 22:40 37.322063 -121.885245 316 997ft 143kts
24-Aug-20 22:41 37.350260 -121.916351 318 244ft 131kts
24-Aug-20 22:42 37.368387 -121.935895 353 49ft 19kts
24-Aug-20 22:43 37.370090 -121.932181 141 46ft 14kts
24-Aug-20 22:44 37.366696 -121.928452 139 51ft 19kts
24-Aug-20 22:45 37.364444 -121.925311 42 55ft 5kts
24-Aug-20 22:46 37.364679 -121.925000 47 54ft 0kts
24-Aug-20 22:47 37.364679 -121.925000 47 54ft 0kts
24-Aug-20 22:48 37.364679 -121.925000 47 54ft 0kts
24-Aug-20 22:49 37.364679 -121.925000 47 54ft 0kts
24-Aug-20 22:50 37.364679 -121.925000 47 54ft 0kts
24-Aug-20 22:51 37.364679 -121.925000 47 54ft 0kts
24-Aug-20 22:51 37.364679 -121.925000 47 54ft 0kts
24-Aug-20 22:53 37.364679 -121.925000 47 54ft 0kts

Navigation Log

Ident Type
Flight plan parsing failed, navigation log unavailable